createdAt,value
2018-07-11T00:01:09.464Z,16.37
2018-07-11T00:03:48.437Z,18.17
2018-07-11T00:06:19.013Z,18.20
2018-07-11T00:08:48.384Z,17.90
2018-07-11T00:11:17.739Z,17.50
2018-07-11T00:13:47.812Z,20.33
2018-07-11T00:16:17.846Z,19.00
2018-07-11T00:18:47.331Z,19.07
2018-07-11T00:21:17.706Z,18.70
2018-07-11T00:23:47.118Z,19.83
2018-07-11T00:26:16.471Z,20.40
2018-07-11T00:28:46.431Z,19.90
2018-07-11T00:31:15.863Z,16.67
2018-07-11T00:33:45.455Z,16.27
2018-07-11T00:36:14.886Z,15.10
2018-07-11T00:38:44.511Z,15.57
2018-07-11T00:41:13.936Z,14.13
2018-07-11T00:43:43.571Z,15.70
2018-07-11T00:46:14.267Z,14.83
2018-07-11T00:48:43.790Z,15.37
2018-07-11T00:51:13.563Z,13.40
2018-07-11T00:53:42.927Z,15.17
2018-07-11T00:56:12.561Z,12.20
2018-07-11T00:59:08.562Z,13.63
2018-07-11T01:01:38.477Z,15.20
2018-07-11T01:04:07.757Z,15.07
2018-07-11T01:06:37.173Z,15.23
2018-07-11T01:09:06.797Z,14.73
2018-07-11T01:11:36.923Z,15.53
2018-07-11T01:14:06.455Z,13.30
2018-07-11T01:16:35.819Z,13.00
2018-07-11T01:19:07.166Z,13.80
2018-07-11T01:21:38.196Z,14.30
2018-07-11T01:24:07.827Z,12.60
2018-07-11T01:26:39.495Z,12.57
2018-07-11T01:29:09.591Z,14.40
2018-07-11T01:31:38.940Z,12.30
2018-07-11T01:34:08.446Z,12.87
2018-07-11T01:36:37.767Z,13.70
2018-07-11T01:39:07.334Z,13.70
2018-07-11T01:41:36.694Z,14.97
2018-07-11T01:44:06.480Z,13.70
2018-07-11T01:46:45.372Z,13.57
2018-07-11T01:49:15.228Z,13.47
2018-07-11T01:51:56.620Z,13.97
2018-07-11T01:54:26.995Z,17.97
2018-07-11T01:56:56.440Z,13.57
2018-07-11T01:59:29.493Z,14.00
2018-07-11T02:01:58.874Z,15.07
2018-07-11T02:04:28.464Z,17.63
2018-07-11T02:06:58.402Z,18.50
2018-07-11T02:09:27.889Z,16.77
2018-07-11T02:11:57.518Z,17.70
2018-07-11T02:14:27.840Z,15.47
2018-07-11T02:16:57.517Z,13.90
2018-07-11T02:19:27.192Z,17.17
2018-07-11T02:21:56.884Z,18.10
2018-07-11T02:24:26.471Z,15.10
2018-07-11T02:26:56.315Z,16.17
2018-07-11T02:29:26.426Z,18.30
2018-07-11T02:31:56.019Z,16.37
2018-07-11T02:34:30.615Z,17.40
2018-07-11T02:37:00.145Z,15.73
2018-07-11T02:39:29.592Z,17.20
2018-07-11T02:41:59.389Z,16.90
2018-07-11T02:44:30.088Z,17.37
2018-07-11T02:47:04.695Z,16.23
2018-07-11T02:49:34.743Z,17.70
2018-07-11T02:52:04.477Z,16.50
2018-07-11T02:54:34.000Z,17.03
2018-07-11T02:57:03.459Z,15.63
2018-07-11T02:59:32.852Z,18.97
2018-07-11T03:02:02.374Z,18.43
2018-07-11T03:04:31.849Z,16.73
2018-07-11T03:07:01.268Z,17.23
2018-07-11T03:09:30.553Z,19.53
2018-07-11T03:12:00.084Z,19.17
2018-07-11T03:14:29.589Z,18.20
2018-07-11T03:16:58.921Z,18.70
2018-07-11T03:19:28.515Z,18.37
2018-07-11T03:21:57.965Z,18.37
2018-07-11T03:24:27.293Z,19.13
2018-07-11T03:26:56.800Z,20.63
2018-07-11T03:29:26.097Z,21.67
2018-07-11T03:31:55.439Z,21.00
2018-07-11T03:34:24.830Z,22.73
2018-07-11T03:36:54.232Z,22.20
2018-07-11T03:39:23.909Z,22.80
2018-07-11T03:41:53.218Z,23.17
2018-07-11T03:44:22.575Z,25.40
2018-07-11T03:46:51.895Z,21.40
2018-07-11T03:49:21.252Z,21.60
2018-07-11T03:51:50.721Z,21.33
2018-07-11T03:54:20.032Z,22.53
2018-07-11T03:56:49.334Z,22.83
2018-07-11T03:59:18.636Z,23.40
2018-07-11T04:01:47.934Z,23.03
2018-07-11T04:04:17.233Z,22.37
2018-07-11T04:06:46.519Z,23.43
2018-07-11T04:09:16.370Z,21.57
2018-07-11T04:11:45.700Z,23.50
2018-07-11T04:14:14.996Z,20.80
2018-07-11T04:16:44.409Z,22.90
2018-07-11T04:19:13.815Z,21.50
2018-07-11T04:21:43.488Z,21.00
2018-07-11T04:24:13.305Z,21.40
2018-07-11T04:26:42.545Z,21.43
2018-07-11T04:29:11.755Z,22.33
2018-07-11T04:31:41.238Z,22.20
2018-07-11T04:34:10.674Z,22.17
2018-07-11T04:36:40.082Z,19.13
2018-07-11T04:39:09.787Z,20.37
2018-07-11T04:41:39.144Z,20.10
2018-07-11T04:44:08.632Z,19.37
2018-07-11T04:46:38.053Z,20.70
2018-07-11T04:49:07.540Z,18.40
2018-07-11T04:51:36.910Z,18.07
2018-07-11T04:54:06.279Z,17.97
2018-07-11T04:56:35.607Z,17.53
2018-07-11T04:59:04.901Z,20.90
2018-07-11T05:01:34.220Z,16.80
2018-07-11T05:04:03.529Z,18.80
2018-07-11T05:06:32.790Z,18.00
2018-07-11T05:09:02.114Z,16.43
2018-07-11T05:11:31.532Z,18.80
2018-07-11T05:14:00.857Z,15.70
2018-07-11T05:16:30.161Z,16.30
2018-07-11T05:18:59.593Z,16.80
2018-07-11T05:21:28.997Z,17.80
2018-07-11T05:23:58.339Z,17.20
2018-07-11T05:26:27.669Z,16.87
2018-07-11T05:28:57.138Z,17.23
2018-07-11T05:31:26.435Z,17.67
2018-07-11T05:33:55.646Z,17.60
2018-07-11T05:36:24.948Z,16.10
2018-07-11T05:38:54.325Z,16.57
2018-07-11T05:41:23.611Z,15.23
2018-07-11T05:43:52.918Z,17.77
2018-07-11T05:46:22.224Z,17.57
2018-07-11T05:48:51.564Z,16.07
2018-07-11T05:51:20.952Z,16.50
2018-07-11T05:53:50.244Z,16.20
2018-07-11T05:56:19.519Z,16.60
2018-07-11T05:58:48.892Z,17.10
2018-07-11T06:01:18.221Z,16.97
2018-07-11T06:03:47.665Z,15.73
2018-07-11T06:06:16.965Z,16.17
2018-07-11T06:08:45.905Z,17.60
2018-07-11T06:11:21.530Z,18.03
2018-07-11T06:13:51.686Z,17.70
2018-07-11T06:16:21.229Z,17.37
2018-07-11T06:18:50.828Z,16.43
2018-07-11T06:21:22.958Z,16.07
2018-07-11T06:23:52.259Z,16.47
2018-07-11T06:26:21.557Z,15.07
2018-07-11T06:28:50.939Z,15.00
2018-07-11T06:31:21.004Z,14.20
2018-07-11T06:33:50.489Z,14.03
2018-07-11T06:36:19.697Z,13.20
2018-07-11T06:38:49.741Z,12.63
2018-07-11T06:41:18.698Z,13.10
2018-07-11T06:43:47.915Z,13.03
2018-07-11T06:46:17.873Z,12.00
2018-07-11T06:48:47.141Z,12.90
2018-07-11T06:51:17.296Z,11.50
2018-07-11T06:53:46.735Z,11.90
2018-07-11T06:56:16.037Z,11.60
2018-07-11T06:58:45.451Z,10.40
2018-07-11T07:01:14.797Z,9.87
2018-07-11T07:03:44.114Z,10.77
2018-07-11T07:06:13.534Z,9.37
2018-07-11T07:08:42.823Z,8.87
2018-07-11T07:11:12.145Z,11.37
2018-07-11T07:13:41.508Z,9.40
2018-07-11T07:16:10.552Z,10.70
2018-07-11T07:18:39.728Z,9.10
2018-07-11T07:21:09.109Z,10.60
2018-07-11T07:23:38.777Z,9.80
2018-07-11T07:26:08.148Z,10.20
2018-07-11T07:28:38.652Z,9.40
2018-07-11T07:31:08.072Z,10.33
2018-07-11T07:33:37.421Z,9.77
2018-07-11T07:36:07.811Z,9.47
2018-07-11T07:38:42.516Z,9.70
2018-07-11T07:41:12.586Z,10.03
2018-07-11T07:43:42.793Z,9.50
2018-07-11T07:46:12.197Z,9.13
2018-07-11T07:48:41.586Z,8.77
2018-07-11T07:51:11.847Z,8.63
2018-07-11T07:53:42.211Z,8.60
2018-07-11T07:56:11.961Z,6.47
2018-07-11T07:58:41.326Z,7.70
2018-07-11T08:01:10.743Z,7.10
2018-07-11T08:03:40.164Z,7.23
2018-07-11T08:06:09.514Z,8.07
2018-07-11T08:08:38.818Z,8.10
2018-07-11T08:11:08.153Z,7.43
2018-07-11T08:13:37.427Z,6.63
2018-07-11T08:16:06.705Z,7.30
2018-07-11T08:18:36.527Z,7.17
2018-07-11T08:21:05.897Z,5.70
2018-07-11T08:23:46.501Z,6.67
2018-07-11T08:26:27.120Z,7.10
2018-07-11T08:29:35.102Z,7.50
2018-07-11T08:32:15.965Z,6.23
2018-07-11T08:35:01.882Z,6.07
2018-07-11T08:38:44.473Z,6.60
2018-07-11T08:45:35.309Z,6.60
2018-07-11T08:48:11.590Z,6.10
2018-07-11T08:50:58.159Z,6.10
2018-07-11T08:53:34.339Z,5.73
2018-07-11T08:57:18.084Z,6.10
2018-07-11T09:00:00.966Z,5.97
2018-07-11T09:02:45.452Z,5.27
2018-07-11T09:05:25.706Z,4.93
2018-07-11T09:10:11.556Z,4.37
2018-07-11T09:12:54.056Z,5.03
2018-07-11T09:15:36.114Z,3.97
2018-07-11T09:18:30.035Z,4.20
2018-07-11T09:21:06.401Z,4.00
2018-07-11T09:24:44.377Z,3.57
2018-07-11T09:27:14.194Z,4.00
2018-07-11T09:29:44.727Z,3.73
2018-07-11T09:32:14.577Z,3.70
2018-07-11T09:34:44.423Z,3.20
2018-07-11T09:37:14.148Z,3.70
2018-07-11T09:39:44.059Z,4.00
2018-07-11T09:42:14.150Z,4.10
2018-07-11T09:44:44.482Z,3.20
2018-07-11T09:47:19.211Z,3.90
2018-07-11T09:49:48.638Z,2.90
2018-07-11T09:52:18.103Z,4.00
2018-07-11T09:54:48.713Z,3.00
2018-07-11T09:57:19.160Z,2.97
2018-07-11T09:59:49.205Z,2.87
2018-07-11T10:02:18.848Z,3.13
2018-07-11T10:04:48.427Z,3.00
2018-07-11T10:07:17.950Z,3.03
2018-07-11T10:09:47.617Z,2.60
2018-07-11T10:12:17.559Z,3.20
2018-07-11T10:14:46.975Z,3.40
2018-07-11T10:17:16.376Z,3.40
2018-07-11T10:19:46.460Z,4.70
2018-07-11T10:22:16.155Z,2.80
2018-07-11T10:24:45.878Z,2.90
2018-07-11T10:27:15.540Z,3.37
2018-07-11T10:29:45.251Z,3.10
2018-07-11T10:32:15.428Z,3.17
2018-07-11T10:34:46.286Z,2.77
2018-07-11T10:37:16.173Z,2.63
2018-07-11T10:39:46.276Z,2.90
2018-07-11T10:42:15.950Z,2.53
2018-07-11T10:44:45.862Z,2.80
2018-07-11T10:47:15.952Z,2.40
2018-07-11T10:49:45.467Z,2.77
2018-07-11T10:52:16.130Z,2.70
2018-07-11T10:54:46.021Z,2.80
2018-07-11T10:57:15.717Z,2.70
2018-07-11T10:59:46.216Z,2.60
2018-07-11T11:02:20.960Z,2.53
2018-07-11T11:04:51.853Z,2.70
2018-07-11T11:07:22.132Z,3.23
2018-07-11T11:09:52.008Z,2.60
2018-07-11T11:12:21.715Z,2.90
2018-07-11T11:14:51.575Z,3.13
2018-07-11T11:17:23.496Z,2.43
2018-07-11T11:19:53.460Z,3.00
2018-07-11T11:22:24.107Z,2.60
2018-07-11T11:24:54.617Z,3.00
2018-07-11T11:27:25.287Z,2.60
2018-07-11T11:29:54.919Z,2.80
2018-07-11T11:32:25.391Z,3.03
2018-07-11T11:34:59.314Z,2.60
2018-07-11T11:37:29.640Z,3.20
2018-07-11T11:40:00.563Z,3.10
2018-07-11T11:42:30.591Z,2.90
2018-07-11T11:44:59.995Z,3.60
2018-07-11T11:47:29.570Z,3.10
2018-07-11T11:49:59.349Z,2.43
2018-07-11T11:52:29.630Z,3.57
2018-07-11T11:54:59.263Z,3.00
2018-07-11T11:57:29.234Z,3.10
2018-07-11T11:59:59.120Z,2.50
2018-07-11T12:02:30.723Z,3.27
2018-07-11T12:05:00.491Z,3.77
2018-07-11T12:07:31.257Z,4.07
2018-07-11T12:10:00.756Z,3.43
2018-07-11T12:12:30.968Z,2.83
2018-07-11T12:15:00.571Z,2.20
2018-07-11T12:17:30.055Z,2.63
2018-07-11T12:19:59.863Z,2.00
2018-07-11T12:22:29.387Z,2.20
2018-07-11T12:25:00.128Z,2.90
2018-07-11T12:27:29.646Z,2.90
2018-07-11T12:29:59.108Z,2.37
2018-07-11T12:32:29.171Z,3.43
2018-07-11T12:34:58.716Z,3.27
2018-07-11T12:37:28.130Z,3.40
2018-07-11T12:39:57.910Z,3.90
2018-07-11T12:42:26.942Z,3.50
2018-07-11T12:44:56.194Z,3.30
2018-07-11T12:47:30.577Z,3.30
2018-07-11T12:49:59.949Z,3.20
2018-07-11T12:52:29.475Z,3.47
2018-07-11T12:54:59.811Z,3.50
2018-07-11T12:57:28.949Z,3.33
2018-07-11T12:59:59.409Z,4.40
2018-07-11T13:02:28.828Z,3.70
2018-07-11T13:04:58.304Z,3.40
2018-07-11T13:07:27.835Z,3.60
2018-07-11T13:09:58.576Z,3.70
2018-07-11T13:12:29.706Z,4.00
2018-07-11T13:14:59.017Z,4.00
2018-07-11T13:17:28.368Z,3.27
2018-07-11T13:19:59.932Z,4.17
2018-07-11T13:22:29.769Z,3.83
2018-07-11T13:24:59.380Z,4.30
2018-07-11T13:27:28.829Z,3.90
2018-07-11T13:29:58.202Z,4.40
2018-07-11T13:32:27.731Z,4.60
2018-07-11T13:34:59.142Z,4.93
2018-07-11T13:37:29.997Z,4.87
2018-07-11T13:39:59.448Z,4.30
2018-07-11T13:42:29.789Z,4.30
2018-07-11T13:44:59.795Z,4.07
2018-07-11T13:47:31.229Z,4.90
2018-07-11T13:50:00.858Z,4.93
2018-07-11T13:52:30.269Z,5.33
2018-07-11T13:55:00.346Z,5.20
2018-07-11T13:57:32.001Z,5.00
2018-07-11T14:00:00.994Z,5.50
2018-07-11T14:02:30.189Z,4.30
2018-07-11T14:05:00.519Z,5.50
2018-07-11T14:07:30.190Z,5.40
2018-07-11T14:09:59.601Z,5.53
2018-07-11T14:12:29.055Z,6.10
2018-07-11T14:14:58.505Z,6.63
2018-07-11T14:17:28.950Z,6.33
2018-07-11T14:19:58.579Z,6.27
2018-07-11T14:22:27.940Z,6.80
2018-07-11T14:24:57.452Z,6.90
2018-07-11T14:27:27.949Z,8.43
2018-07-11T14:29:59.235Z,8.90
2018-07-11T14:32:29.089Z,10.50
2018-07-11T14:34:58.527Z,7.53
2018-07-11T14:37:29.045Z,9.27
2018-07-11T14:39:58.449Z,9.40
2018-07-11T14:42:29.991Z,11.50
2018-07-11T14:44:59.495Z,11.40
2018-07-11T14:47:39.844Z,11.60
2018-07-11T14:50:08.815Z,11.90
2018-07-11T14:52:38.117Z,10.03
2018-07-11T14:55:07.150Z,12.50
2018-07-11T14:57:36.717Z,13.33
2018-07-11T15:00:06.468Z,11.30
2018-07-11T15:02:35.971Z,13.73
2018-07-11T15:05:05.678Z,13.50
2018-07-11T15:07:36.483Z,14.10
2018-07-11T15:10:06.334Z,14.13
2018-07-11T15:12:37.090Z,18.20
2018-07-11T15:15:06.432Z,14.53
2018-07-11T15:17:35.833Z,16.53
2018-07-11T15:20:05.445Z,15.27
2018-07-11T15:22:35.003Z,17.87
2018-07-11T15:25:04.417Z,13.77
2018-07-11T15:27:33.939Z,16.17
2018-07-11T15:30:04.608Z,18.47
2018-07-11T15:32:34.190Z,16.80
2018-07-11T15:35:03.916Z,17.20
2018-07-11T15:37:33.979Z,17.30
2018-07-11T15:40:04.545Z,18.17
2018-07-11T15:42:34.218Z,15.77
2018-07-11T15:45:03.721Z,17.60
2018-07-11T15:47:35.226Z,16.00
2018-07-11T15:50:04.899Z,16.60
2018-07-11T15:52:34.653Z,17.83
2018-07-11T15:55:04.062Z,15.73
2018-07-11T15:57:38.634Z,16.17
2018-07-11T16:00:10.591Z,17.20
2018-07-11T16:02:43.737Z,15.97
2018-07-11T16:05:19.242Z,17.40
2018-07-11T16:07:50.546Z,17.40
2018-07-11T16:10:45.565Z,15.50
2018-07-11T16:13:16.001Z,16.83
2018-07-11T16:15:46.041Z,17.77
2018-07-11T16:18:16.362Z,18.93
2018-07-11T16:20:45.949Z,17.77
2018-07-11T16:23:16.783Z,21.03
2018-07-11T16:25:46.432Z,19.20
2018-07-11T16:28:17.040Z,18.13
2018-07-11T16:30:46.540Z,17.07
2018-07-11T16:33:16.956Z,16.30
2018-07-11T16:35:46.668Z,16.63
2018-07-11T16:38:16.152Z,17.50
2018-07-11T16:40:46.044Z,17.70
2018-07-11T16:43:16.089Z,17.50
2018-07-11T16:45:45.722Z,16.30
2018-07-11T16:48:15.985Z,16.83
2018-07-11T16:50:46.686Z,19.40
2018-07-11T16:53:16.394Z,17.60
2018-07-11T16:55:46.193Z,18.43
2018-07-11T16:58:23.293Z,17.47
2018-07-11T17:00:53.111Z,20.10
2018-07-11T17:03:23.283Z,21.60
2018-07-11T17:05:59.725Z,25.00
2018-07-11T17:08:31.962Z,23.30
2018-07-11T17:11:14.422Z,16.00
2018-07-11T17:13:50.279Z,20.73
2018-07-11T17:16:21.078Z,22.27
2018-07-11T17:18:53.752Z,22.43
2018-07-11T17:21:30.423Z,25.20
2018-07-11T17:24:05.643Z,23.80
2018-07-11T17:26:35.994Z,20.70
2018-07-11T17:29:05.372Z,20.50
2018-07-11T17:31:34.865Z,20.80
2018-07-11T17:34:04.545Z,20.30
2018-07-11T17:36:35.291Z,20.30
2018-07-11T17:39:05.751Z,23.07
2018-07-11T17:41:36.250Z,20.50
2018-07-11T17:44:05.851Z,22.47
2018-07-11T17:46:37.425Z,22.90
2018-07-11T17:49:14.667Z,22.47
2018-07-11T17:51:55.893Z,23.00
2018-07-11T17:55:33.027Z,19.80
2018-07-11T17:58:10.372Z,21.23
2018-07-11T18:00:48.571Z,20.77
2018-07-11T18:04:32.875Z,21.90
2018-07-11T18:07:06.021Z,19.90
2018-07-11T18:10:07.489Z,19.63
2018-07-11T18:12:47.301Z,20.50
2018-07-11T18:15:42.526Z,18.33
2018-07-11T18:18:24.756Z,21.37
2018-07-11T18:21:00.238Z,21.37
2018-07-11T18:23:38.775Z,20.67
2018-07-11T18:28:20.665Z,19.30
2018-07-11T18:31:29.853Z,20.80
2018-07-11T18:34:24.216Z,25.43
2018-07-11T18:37:01.963Z,26.90
2018-07-11T18:40:12.582Z,24.63
2018-07-11T18:43:10.174Z,26.50
2018-07-11T18:46:43.837Z,28.27
2018-07-11T18:49:21.309Z,26.63
2018-07-11T18:52:57.899Z,23.47
2018-07-11T18:55:36.516Z,28.83
2018-07-11T18:58:20.788Z,27.07
2018-07-11T19:00:58.394Z,28.10
2018-07-11T19:03:34.262Z,29.37
2018-07-11T19:07:16.225Z,31.17
2018-07-11T19:09:50.487Z,29.87
2018-07-11T19:12:26.208Z,29.27
2018-07-11T19:15:09.120Z,27.67
2018-07-11T19:20:05.465Z,32.10
2018-07-11T19:22:47.018Z,30.50
2018-07-11T19:25:21.536Z,30.80
2018-07-11T19:27:57.764Z,29.40
2018-07-11T19:31:11.439Z,28.33
2018-07-11T19:34:47.579Z,29.50
2018-07-11T19:37:28.287Z,30.10
2018-07-11T19:40:09.727Z,28.97
2018-07-11T19:44:57.988Z,33.43
2018-07-11T19:47:35.432Z,32.40
2018-07-11T19:54:25.598Z,32.30
2018-07-11T19:56:56.056Z,32.73
2018-07-11T19:59:25.078Z,29.90
2018-07-11T20:01:54.310Z,33.37
2018-07-11T20:04:24.928Z,33.40
2018-07-11T20:06:54.410Z,34.17
2018-07-11T20:09:23.849Z,31.70
2018-07-11T20:11:53.274Z,32.00
2018-07-11T20:14:24.187Z,32.30
2018-07-11T20:16:54.498Z,35.97
2018-07-11T20:19:23.967Z,37.67
2018-07-11T20:21:53.835Z,38.07
2018-07-11T20:24:23.607Z,36.13
2018-07-11T20:26:52.993Z,33.70
2018-07-11T20:29:22.497Z,34.13
2018-07-11T20:31:51.902Z,33.20
2018-07-11T20:34:21.309Z,32.47
2018-07-11T20:36:50.808Z,34.90
2018-07-11T20:39:20.262Z,33.90
2018-07-11T20:41:49.641Z,34.40
2018-07-11T20:44:19.132Z,32.70
2018-07-11T20:46:48.668Z,33.27
2018-07-11T20:49:24.223Z,34.33
2018-07-11T20:51:53.667Z,33.83
2018-07-11T20:54:23.058Z,31.47
2018-07-11T20:56:53.111Z,30.80
2018-07-11T20:59:33.665Z,31.00
2018-07-11T21:02:14.420Z,30.17
2018-07-11T21:04:54.151Z,31.40
2018-07-11T21:07:45.168Z,31.63
2018-07-11T21:11:27.206Z,32.00
2018-07-11T21:14:39.618Z,32.70
2018-07-11T21:17:22.458Z,30.27
2018-07-11T21:19:59.319Z,32.27
2018-07-11T21:22:28.782Z,30.50
2018-07-11T21:24:58.877Z,35.17
2018-07-11T21:27:28.207Z,35.20
2018-07-11T21:29:57.521Z,34.37
2018-07-11T21:32:27.008Z,37.60
2018-07-11T21:34:56.158Z,32.63
2018-07-11T21:37:25.572Z,35.20
2018-07-11T21:39:55.308Z,37.30
2018-07-11T21:42:24.759Z,33.00
2018-07-11T21:44:54.374Z,35.80
2018-07-11T21:47:23.789Z,35.90
2018-07-11T21:49:53.414Z,34.60
2018-07-11T21:52:22.879Z,35.93
2018-07-11T21:54:52.495Z,34.40
2018-07-11T21:57:22.936Z,35.50
2018-07-11T21:59:53.226Z,38.43
2018-07-11T22:02:22.804Z,33.93
2018-07-11T22:04:52.276Z,37.00
2018-07-11T22:07:21.663Z,33.90
2018-07-11T22:09:50.997Z,32.97
2018-07-11T22:12:20.485Z,37.90
2018-07-11T22:14:49.910Z,38.03
2018-07-11T22:17:31.181Z,38.53
2018-07-11T22:19:59.324Z,39.03
2018-07-11T22:22:27.572Z,39.10
2018-07-11T22:24:55.759Z,36.70
2018-07-11T22:27:23.869Z,38.30
2018-07-11T22:29:52.049Z,39.47
2018-07-11T22:32:20.240Z,37.07
2018-07-11T22:34:48.478Z,36.97
2018-07-11T22:37:16.772Z,41.33
2018-07-11T22:39:44.964Z,37.30
2018-07-11T22:42:13.189Z,35.33
2018-07-11T22:44:41.355Z,37.00
2018-07-11T22:47:09.705Z,40.67
2018-07-11T22:49:42.066Z,39.00
2018-07-11T22:52:10.503Z,37.20
2018-07-11T22:54:38.701Z,36.67
2018-07-11T22:57:07.003Z,39.83
2018-07-11T22:59:35.138Z,39.33
2018-07-11T23:02:03.415Z,38.53
2018-07-11T23:04:31.519Z,43.83
2018-07-11T23:06:59.699Z,41.33
2018-07-11T23:09:27.991Z,41.13
2018-07-11T23:11:56.089Z,42.83
2018-07-11T23:14:24.189Z,42.30
2018-07-11T23:16:52.392Z,44.77
2018-07-11T23:19:20.618Z,42.20
2018-07-11T23:21:48.861Z,45.87
2018-07-11T23:24:16.978Z,45.73
2018-07-11T23:26:45.083Z,50.97
2018-07-11T23:29:13.322Z,49.97
2018-07-11T23:31:41.632Z,51.97
2018-07-11T23:34:09.966Z,53.53
2018-07-11T23:36:38.274Z,48.97
2018-07-11T23:39:07.792Z,71.33
2018-07-11T23:41:35.975Z,53.77
2018-07-11T23:44:04.157Z,55.77
2018-07-11T23:46:32.268Z,47.43
2018-07-11T23:49:00.439Z,58.30
2018-07-11T23:51:28.672Z,54.27
2018-07-11T23:53:56.754Z,66.57
2018-07-11T23:56:24.860Z,67.17
2018-07-11T23:58:52.965Z,63.80
